createdAt,value
2018-09-04T00:01:53.194Z,20.76
2018-09-04T00:06:55.313Z,20.68
2018-09-04T00:11:57.473Z,20.61
2018-09-04T00:16:59.597Z,20.49
2018-09-04T00:22:01.712Z,20.44
2018-09-04T00:27:03.851Z,20.41
2018-09-04T00:32:06.090Z,20.34
2018-09-04T00:37:08.218Z,20.30
2018-09-04T00:42:10.385Z,20.24
2018-09-04T00:47:12.576Z,20.22
2018-09-04T00:52:14.700Z,20.19
2018-09-04T00:57:16.796Z,20.17
2018-09-04T01:02:18.938Z,20.10
2018-09-04T01:07:21.059Z,20.10
2018-09-04T01:12:23.180Z,20.07
2018-09-04T01:17:25.382Z,20.06
2018-09-04T01:22:27.510Z,20.03
2018-09-04T01:27:29.628Z,20.00
2018-09-04T01:32:31.739Z,19.92
2018-09-04T01:37:33.894Z,19.88
2018-09-04T01:42:36.150Z,19.79
2018-09-04T01:47:38.272Z,19.84
2018-09-04T01:52:40.953Z,19.81
2018-09-04T01:57:43.074Z,19.80
2018-09-04T02:02:45.526Z,19.80
2018-09-04T02:07:48.457Z,19.76
2018-09-04T02:12:50.598Z,19.78
2018-09-04T02:17:52.755Z,19.75
2018-09-04T02:22:54.919Z,19.70
2018-09-04T02:27:57.197Z,19.71
2018-09-04T02:32:59.363Z,19.71
2018-09-04T02:38:01.570Z,19.69
2018-09-04T02:43:03.846Z,19.66
2018-09-04T02:48:06.006Z,19.61
2018-09-04T02:53:08.152Z,19.65
2018-09-04T02:58:10.386Z,19.59
2018-09-04T03:03:12.505Z,19.55
2018-09-04T03:08:14.625Z,19.53
2018-09-04T03:13:16.790Z,19.45
2018-09-04T03:18:18.922Z,19.49
2018-09-04T03:23:21.014Z,19.47
2018-09-04T03:28:23.117Z,19.46
2018-09-04T03:33:25.246Z,19.44
2018-09-04T03:38:27.378Z,19.42
2018-09-04T03:43:29.500Z,19.42
2018-09-04T03:48:31.663Z,19.38
2018-09-04T03:53:33.775Z,19.39
2018-09-04T03:58:35.943Z,19.41
2018-09-04T04:03:38.086Z,19.37
2018-09-04T04:08:40.191Z,19.41
2018-09-04T04:13:42.353Z,19.39
2018-09-04T04:18:44.485Z,19.43
2018-09-04T04:23:46.598Z,19.44
2018-09-04T04:28:48.769Z,19.43
2018-09-04T04:33:51.377Z,19.49
2018-09-04T04:38:53.517Z,19.47
2018-09-04T04:43:55.640Z,19.51
2018-09-04T04:48:57.795Z,19.48
2018-09-04T04:54:00.083Z,19.47
2018-09-04T04:59:02.443Z,19.49
2018-09-04T05:04:04.777Z,19.54
2018-09-04T05:09:07.656Z,19.52
2018-09-04T05:14:09.804Z,19.55
2018-09-04T05:19:11.904Z,19.63
2018-09-04T05:24:14.023Z,19.65
2018-09-04T05:29:16.563Z,19.73
2018-09-04T05:34:18.666Z,19.86
2018-09-04T05:39:20.777Z,20.05
2018-09-04T05:44:22.933Z,20.38
2018-09-04T05:49:31.482Z,20.66
2018-09-04T05:54:33.650Z,20.78
2018-09-04T05:59:35.817Z,20.90
2018-09-04T06:04:38.000Z,21.00
2018-09-04T06:09:40.102Z,21.07
2018-09-04T06:14:42.267Z,21.15
2018-09-04T06:19:44.429Z,21.17
2018-09-04T06:24:46.555Z,21.08
2018-09-04T06:29:48.710Z,21.11
2018-09-04T06:34:50.854Z,21.14
2018-09-04T06:39:52.979Z,21.22
2018-09-04T06:44:55.119Z,21.32
2018-09-04T06:49:57.325Z,21.36
2018-09-04T06:54:59.438Z,21.48
2018-09-04T07:00:01.573Z,21.60
2018-09-04T07:05:04.996Z,21.65
2018-09-04T07:10:07.404Z,21.69
2018-09-04T07:15:09.572Z,21.61
2018-09-04T07:20:11.735Z,21.55
2018-09-04T07:25:13.870Z,21.61
2018-09-04T07:30:15.975Z,21.52
2018-09-04T07:35:18.088Z,21.53
2018-09-04T07:40:20.235Z,21.52
2018-09-04T07:45:22.465Z,21.59
2018-09-04T07:50:24.650Z,21.62
2018-09-04T07:55:26.795Z,21.64
2018-09-04T08:00:28.933Z,21.70
2018-09-04T08:05:31.095Z,21.72
2018-09-04T08:10:34.857Z,21.86
2018-09-04T08:15:37.143Z,21.91
2018-09-04T08:20:39.370Z,22.03
2018-09-04T08:25:41.466Z,22.21
2018-09-04T08:30:43.631Z,22.34
2018-09-04T08:35:45.750Z,22.49
2018-09-04T08:40:47.932Z,22.57
2018-09-04T08:45:50.090Z,22.70
2018-09-04T08:50:52.301Z,22.89
2018-09-04T08:55:54.461Z,22.99
2018-09-04T09:00:56.616Z,22.88
2018-09-04T09:05:58.783Z,22.84
2018-09-04T09:11:00.952Z,22.70
2018-09-04T09:16:03.113Z,22.62
2018-09-04T09:21:05.280Z,22.53
2018-09-04T09:26:07.416Z,22.54
2018-09-04T09:31:09.586Z,22.68
2018-09-04T09:36:11.760Z,22.84
2018-09-04T09:41:14.010Z,23.02
2018-09-04T09:46:16.174Z,23.05
2018-09-04T09:51:18.338Z,23.07
2018-09-04T09:56:20.571Z,23.09
2018-09-04T10:01:28.466Z,23.16
2018-09-04T10:06:30.606Z,22.98
2018-09-04T10:11:32.821Z,23.18
2018-09-04T10:16:35.047Z,23.27
2018-09-04T10:21:37.171Z,23.39
2018-09-04T10:26:39.402Z,23.58
2018-09-04T10:31:41.573Z,23.77
2018-09-04T10:36:44.776Z,23.92
2018-09-04T10:41:46.924Z,24.00
2018-09-04T10:46:49.084Z,23.93
2018-09-04T10:51:51.273Z,24.33
2018-09-04T10:56:53.508Z,24.53
2018-09-04T11:01:55.726Z,24.76
2018-09-04T11:06:57.903Z,24.94
2018-09-04T11:12:00.025Z,24.93
2018-09-04T11:17:02.169Z,25.13
2018-09-04T11:22:04.472Z,25.31
2018-09-04T11:27:06.642Z,25.54
2018-09-04T11:32:08.834Z,25.80
2018-09-04T11:37:11.011Z,25.90
2018-09-04T11:42:13.418Z,26.19
2018-09-04T11:47:15.586Z,26.55
2018-09-04T11:52:17.807Z,26.57
2018-09-04T11:57:20.809Z,26.67
2018-09-04T12:02:30.323Z,26.69
2018-09-04T12:07:32.506Z,26.82
2018-09-04T12:12:35.274Z,27.26
2018-09-04T12:17:37.217Z,27.57
2018-09-04T12:22:39.341Z,25.71
2018-09-04T12:27:41.479Z,27.97
2018-09-04T12:32:43.647Z,28.16
2018-09-04T12:37:45.985Z,28.23
2018-09-04T12:42:48.183Z,28.61
2018-09-04T12:47:50.851Z,28.90
2018-09-04T12:52:53.057Z,28.99
2018-09-04T12:57:55.227Z,29.25
2018-09-04T13:02:57.408Z,29.64
2018-09-04T13:07:59.555Z,29.89
2018-09-04T13:13:01.714Z,30.07
2018-09-04T13:18:04.063Z,30.36
2018-09-04T13:23:06.212Z,30.37
2018-09-04T13:28:08.662Z,30.47
2018-09-04T13:33:10.849Z,30.75
2018-09-04T13:38:13.018Z,30.77
2018-09-04T13:43:15.197Z,31.09
2018-09-04T13:48:17.459Z,31.05
2018-09-04T13:53:19.708Z,31.22
2018-09-04T13:58:22.131Z,31.52
2018-09-04T14:03:24.301Z,31.73
2018-09-04T14:08:26.494Z,31.84
2018-09-04T14:13:28.629Z,32.12
2018-09-04T14:18:30.826Z,32.14
2018-09-04T14:23:33.015Z,32.22
2018-09-04T14:28:42.110Z,32.24
2018-09-04T14:33:37.589Z,32.28
2018-09-04T14:38:39.807Z,32.43
2018-09-04T14:43:41.990Z,32.56
2018-09-04T14:48:44.175Z,32.42
2018-09-04T14:53:46.458Z,32.56
2018-09-04T14:58:48.596Z,32.50
2018-09-04T15:03:50.743Z,32.48
2018-09-04T15:08:52.947Z,32.50
2018-09-04T15:13:55.148Z,32.71
2018-09-04T15:18:57.525Z,32.73
2018-09-04T15:23:59.752Z,32.54
2018-09-04T15:29:02.026Z,32.58
2018-09-04T15:34:04.267Z,32.19
2018-09-04T15:39:06.688Z,32.10
2018-09-04T15:44:08.880Z,31.95
2018-09-04T15:49:16.691Z,31.83
2018-09-04T15:54:18.901Z,31.23
2018-09-04T15:59:21.050Z,30.44
2018-09-04T16:04:23.276Z,30.30
2018-09-04T16:09:25.703Z,29.51
2018-09-04T16:14:27.875Z,28.84
2018-09-04T16:19:30.092Z,28.43
2018-09-04T16:24:32.325Z,28.33
2018-09-04T16:29:34.459Z,27.59
2018-09-04T16:34:36.670Z,27.20
2018-09-04T16:39:38.919Z,26.75
2018-09-04T16:44:41.080Z,26.32
2018-09-04T16:49:43.261Z,26.04
2018-09-04T16:54:45.489Z,25.71
2018-09-04T16:59:47.732Z,25.54
2018-09-04T17:04:49.895Z,25.33
2018-09-04T17:09:52.091Z,25.15
2018-09-04T17:14:54.280Z,25.02
2018-09-04T17:19:56.472Z,24.86
2018-09-04T17:24:59.165Z,24.73
2018-09-04T17:30:01.395Z,24.53
2018-09-04T17:35:03.656Z,24.41
2018-09-04T17:40:05.944Z,24.30
2018-09-04T17:45:08.197Z,24.24
2018-09-04T17:50:10.425Z,24.06
2018-09-04T17:55:12.928Z,24.01
2018-09-04T18:00:15.208Z,23.94
2018-09-04T18:05:17.457Z,23.90
2018-09-04T18:10:19.760Z,23.84
2018-09-04T18:15:22.257Z,23.78
2018-09-04T18:20:24.679Z,23.69
2018-09-04T18:25:27.145Z,23.61
2018-09-04T18:30:29.415Z,23.57
2018-09-04T18:35:31.633Z,23.52
2018-09-04T18:40:34.546Z,23.48
2018-09-04T18:45:46.745Z,23.46
2018-09-04T18:50:49.210Z,23.42
2018-09-04T18:55:51.622Z,23.41
2018-09-04T19:00:54.055Z,23.39
2018-09-04T19:05:56.439Z,23.38
2018-09-04T19:10:58.817Z,23.39
2018-09-04T19:16:01.350Z,23.31
2018-09-04T19:21:03.798Z,23.29
2018-09-04T19:26:06.234Z,23.28
2018-09-04T19:31:08.701Z,23.24
2018-09-04T19:36:10.999Z,23.20
2018-09-04T19:41:13.322Z,23.18
2018-09-04T19:46:15.661Z,23.18
2018-09-04T19:51:18.155Z,23.16
2018-09-04T19:56:20.528Z,23.15
2018-09-04T20:01:29.698Z,23.15
2018-09-04T20:06:31.986Z,23.12
2018-09-04T20:11:34.281Z,23.11
2018-09-04T20:16:36.617Z,23.07
2018-09-04T20:21:39.097Z,23.06
2018-09-04T20:26:41.341Z,22.99
2018-09-04T20:31:43.588Z,23.00
2018-09-04T20:36:45.843Z,23.01
2018-09-04T20:41:48.112Z,22.94
2018-09-04T20:46:50.359Z,22.66
2018-09-04T20:51:52.556Z,22.53
2018-09-04T20:57:33.747Z,22.50
2018-09-04T21:02:47.242Z,22.46
2018-09-04T21:08:05.769Z,22.44
2018-09-04T21:13:08.461Z,22.41
2018-09-04T21:18:10.721Z,22.39
2018-09-04T21:23:12.992Z,22.28
2018-09-04T21:28:15.208Z,22.20
2018-09-04T21:33:17.408Z,22.07
2018-09-04T21:38:19.667Z,21.90
2018-09-04T21:43:21.880Z,21.80
2018-09-04T21:48:24.028Z,21.82
2018-09-04T21:53:26.220Z,21.85
2018-09-04T21:58:28.431Z,21.89
2018-09-04T22:03:30.589Z,21.73
2018-09-04T22:08:32.771Z,21.51
2018-09-04T22:13:34.978Z,21.39
2018-09-04T22:18:37.126Z,21.38
2018-09-04T22:23:39.545Z,21.32
2018-09-04T22:28:41.662Z,21.30
2018-09-04T22:33:43.818Z,21.26
2018-09-04T22:38:45.962Z,21.30
2018-09-04T22:43:48.079Z,21.39
2018-09-04T22:48:50.207Z,21.44
2018-09-04T22:53:52.324Z,21.45
2018-09-04T22:58:54.461Z,21.42
2018-09-04T23:03:56.588Z,21.19
2018-09-04T23:08:58.733Z,21.04
2018-09-04T23:14:00.878Z,21.13
2018-09-04T23:19:03.011Z,21.28
2018-09-04T23:24:05.170Z,21.32
2018-09-04T23:29:07.322Z,21.26
2018-09-04T23:34:09.446Z,21.08
2018-09-04T23:39:11.652Z,21.14
2018-09-04T23:44:13.814Z,20.99
2018-09-04T23:49:15.989Z,20.80
2018-09-04T23:54:18.162Z,20.66
2018-09-04T23:59:20.361Z,20.50
